Time;durP1;ratioP1;P1;durP2;ratioP2;P2;SDS_P1;SDS_P2;PMS_P1;PMS_P2;Temp;Humidity;BMP_temperature;BMP_pressure;BME280_temperature;BME280_humidity;BME280_pressure;Samples;Min_cycle;Max_cycle;Signal;HPM_P1;HPM_P2
2021/03/25 00:01:38;;;;;;;7.40;5.00;;;17.60;58.20;;;;;;10455907;28;20021;-58
2021/03/25 00:06:52;;;;;;;7.43;5.30;;;17.70;58.10;;;;;;10454503;28;20025;-58
2021/03/25 00:11:53;;;;;;;8.52;6.20;;;17.70;58.00;;;;;;10453020;28;20511;-58
2021/03/25 00:16:54;;;;;;;6.40;4.95;;;17.70;58.00;;;;;;10453087;28;20032;-58
2021/03/25 00:21:55;;;;;;;5.78;4.45;;;17.70;57.90;;;;;;10453448;28;20505;-58
2021/03/25 00:26:55;;;;;;;7.78;4.85;;;17.70;57.90;;;;;;10459886;28;20053;-59
2021/03/25 00:31:56;;;;;;;6.40;4.85;;;17.70;57.80;;;;;;10464032;28;20055;-58
2021/03/25 00:36:57;;;;;;;6.88;4.80;;;17.70;57.80;;;;;;10461377;28;20029;-59
2021/03/25 00:41:57;;;;;;;6.20;4.95;;;17.70;57.70;;;;;;10461112;28;20098;-58
2021/03/25 00:46:58;;;;;;;5.93;5.00;;;17.70;57.70;;;;;;10461064;28;20108;-58
2021/03/25 00:51:58;;;;;;;7.13;5.18;;;17.70;57.70;;;;;;10460553;28;20172;-58
2021/03/25 00:56:59;;;;;;;6.93;4.72;;;17.70;57.70;;;;;;10460308;28;20037;-58
2021/03/25 01:02:00;;;;;;;6.45;4.90;;;17.70;57.60;;;;;;10470555;28;20420;-58
2021/03/25 01:07:01;;;;;;;6.28;4.70;;;17.70;57.60;;;;;;10459938;28;20108;-58
2021/03/25 01:12:02;;;;;;;5.93;4.50;;;17.70;57.60;;;;;;10459910;28;20495;-58
2021/03/25 01:17:05;;;;;;;5.75;4.50;;;17.70;57.50;;;;;;10475405;28;20382;-58
2021/03/25 01:22:06;;;;;;;7.55;5.07;;;17.70;57.50;;;;;;10459464;28;20041;-58
2021/03/25 01:27:08;;;;;;;6.00;4.35;;;17.70;57.50;;;;;;10457803;28;20021;-58
2021/03/25 01:32:09;;;;;;;6.43;4.85;;;17.70;57.50;;;;;;10461374;28;20025;-58
2021/03/25 01:37:10;;;;;;;5.70;4.30;;;17.70;57.50;;;;;;10458553;28;20040;-58
2021/03/25 01:42:27;;;;;;;6.65;4.85;;;17.70;57.50;;;;;;10458813;28;20056;-58
2021/03/25 01:47:30;;;;;;;7.78;5.50;;;17.70;57.40;;;;;;10473693;28;20033;-58
2021/03/25 01:53:00;;;;;;;5.90;4.55;;;17.70;57.30;;;;;;10457314;28;20533;-58
2021/03/25 01:58:15;;;;;;;5.38;4.13;;;17.80;57.30;;;;;;10457038;28;20032;-58
2021/03/25 02:03:36;;;;;;;6.63;4.57;;;17.80;57.30;;;;;;10457766;28;20029;-59
2021/03/25 02:09:04;;;;;;;5.20;4.55;;;17.70;57.20;;;;;;10457855;28;20537;-59
2021/03/25 02:14:38;;;;;;;6.82;4.75;;;17.70;57.20;;;;;;10453166;28;20107;-58
2021/03/25 02:20:06;;;;;;;6.45;4.20;;;17.80;57.20;;;;;;10454895;28;20040;-58
2021/03/25 02:25:38;;;;;;;5.43;4.03;;;17.80;57.20;;;;;;10457539;28;20473;-58
2021/03/25 02:30:44;;;;;;;5.90;4.47;;;17.80;57.10;;;;;;10453088;28;20059;-58
2021/03/25 02:35:57;;;;;;;5.53;4.28;;;17.70;57.10;;;;;;10456973;28;20069;-58
2021/03/25 02:41:07;;;;;;;5.50;4.90;;;17.70;57.10;;;;;;10471235;28;20150;-58
2021/03/25 02:46:37;;;;;;;5.45;4.45;;;17.80;57.10;;;;;;10455678;28;20082;-58
2021/03/25 02:51:46;;;;;;;4.78;4.03;;;17.80;57.10;;;;;;10455451;28;20064;-58
2021/03/25 02:56:53;;;;;;;5.93;4.93;;;17.80;57.10;;;;;;10471188;28;20021;-58
2021/03/25 03:02:19;;;;;;;5.15;4.10;;;17.70;57.00;;;;;;10455506;28;20040;-58
2021/03/25 03:07:26;;;;;;;5.50;4.30;;;17.70;57.00;;;;;;10453648;28;20037;-58
2021/03/25 03:12:34;;;;;;;5.25;4.22;;;17.80;57.00;;;;;;10452834;28;20024;-58
2021/03/25 03:17:45;;;;;;;5.90;4.32;;;17.70;57.00;;;;;;10455663;28;20036;-58
2021/03/25 03:22:46;;;;;;;7.40;4.68;;;17.80;57.00;;;;;;10451527;28;20056;-57
2021/03/25 03:27:59;;;;;;;5.97;4.30;;;17.80;56.90;;;;;;10453957;28;20032;-58
2021/03/25 03:33:23;;;;;;;5.95;4.28;;;17.80;56.90;;;;;;10470232;28;20481;-58
2021/03/25 03:38:33;;;;;;;5.25;4.07;;;17.80;56.90;;;;;;10438747;28;20036;-58
2021/03/25 03:43:35;;;;;;;;;;;17.80;56.90;;;;;;10453468;28;20036;-58
2021/03/25 03:49:01;;;;;;;6.70;4.80;;;17.70;56.80;;;;;;10453203;28;19998;-58
2021/03/25 03:54:05;;;;;;;6.38;4.45;;;17.80;56.90;;;;;;10453812;28;20374;-58
2021/03/25 03:59:15;;;;;;;5.95;4.40;;;17.80;56.90;;;;;;10456614;28;20033;-58
2021/03/25 04:04:32;;;;;;;5.47;4.57;;;17.80;56.90;;;;;;10461569;28;20414;-58
2021/03/25 04:09:38;;;;;;;6.85;4.57;;;17.80;56.80;;;;;;10472206;28;20120;-58
2021/03/25 04:14:58;;;;;;;5.97;4.22;;;17.80;56.80;;;;;;10461049;28;20218;-58
2021/03/25 04:20:08;;;;;;;6.55;4.72;;;17.80;56.80;;;;;;10476550;28;20461;-58
2021/03/25 04:25:29;;;;;;;5.50;4.00;;;17.80;56.80;;;;;;10462735;28;20051;-58
2021/03/25 04:30:45;;;;;;;5.47;4.35;;;17.80;56.70;;;;;;10465424;28;20569;-58
2021/03/25 04:35:46;;;;;;;5.47;3.72;;;17.80;56.80;;;;;;10476286;28;20013;-58
2021/03/25 04:40:48;;;;;;;6.60;4.68;;;17.80;56.80;;;;;;10461402;28;20393;-58
2021/03/25 04:46:14;;;;;;;7.70;5.20;;;17.80;56.80;;;;;;10476991;28;20494;-58
2021/03/25 04:51:20;;;;;;;6.03;3.75;;;17.80;56.70;;;;;;10459365;28;20064;-58
2021/03/25 04:56:23;;;;;;;5.30;3.47;;;17.80;56.70;;;;;;10459068;28;20043;-58
2021/03/25 05:01:30;;;;;;;4.78;4.28;;;17.80;56.70;;;;;;10460314;28;20036;-58
2021/03/25 05:06:57;;;;;;;5.95;4.55;;;17.80;56.80;;;;;;10475984;28;20039;-58
2021/03/25 05:12:02;;;;;;;5.43;4.60;;;17.80;56.70;;;;;;10458998;28;20059;-58
2021/03/25 05:17:48;;;;;;;5.82;4.28;;;17.80;56.70;;;;;;10458830;28;20036;-58
2021/03/25 05:23:15;;;;;;;7.63;4.78;;;17.80;56.70;;;;;;10459475;28;20444;-58
2021/03/25 05:28:22;;;;;;;6.00;4.50;;;17.80;56.70;;;;;;10460416;28;20029;-58
2021/03/25 05:33:28;;;;;;;6.85;4.25;;;17.80;56.70;;;;;;10453040;28;20121;-58
2021/03/25 05:38:29;;;;;;;7.55;4.82;;;17.80;56.70;;;;;;10472456;28;20036;-58
2021/03/25 05:43:57;;;;;;;6.80;4.78;;;17.80;56.70;;;;;;10479539;28;20082;-58
2021/03/25 05:49:07;;;;;;;6.10;4.03;;;17.80;56.70;;;;;;10490246;28;20520;-58
2021/03/25 05:54:38;;;;;;;6.40;4.30;;;17.80;56.70;;;;;;10471363;28;20032;-58
2021/03/25 06:00:11;;;;;;;6.35;4.97;;;17.80;56.70;;;;;;10465721;28;20047;-58
2021/03/25 06:05:15;;;;;;;6.72;5.05;;;17.80;56.60;;;;;;10488730;28;20059;-59
2021/03/25 06:10:48;;;;;;;5.68;4.30;;;17.80;56.70;;;;;;10454663;28;20033;-57
2021/03/25 06:16:21;;;;;;;9.27;5.50;;;17.80;57.40;;;;;;10454688;28;20426;-61
2021/03/25 06:21:34;;;;;;;15.32;5.25;;;17.70;58.40;;;;;;10457725;28;20452;-60
2021/03/25 06:27:18;;;;;;;7.05;4.55;;;17.70;59.90;;;;;;10457143;28;20033;-60
2021/03/25 06:32:54;;;;;;;9.07;4.68;;;17.70;59.70;;;;;;10456665;28;20486;-60
2021/03/25 06:38:03;;;;;;;9.13;4.72;;;17.80;61.20;;;;;;10453451;28;20068;-62
2021/03/25 06:43:31;;;;;;;14.38;5.85;;;17.70;61.20;;;;;;10487099;28;20052;-59
2021/03/25 06:48:39;;;;;;;11.90;5.30;;;17.70;60.80;;;;;;10470321;28;20528;-60
2021/03/25 06:53:40;;;;;;;9.25;5.50;;;17.70;60.60;;;;;;10487594;28;20055;-59
2021/03/25 06:58:51;;;;;;;28.27;8.10;;;17.70;60.60;;;;;;10455704;28;20370;-59
2021/03/25 07:04:18;;;;;;;15.93;6.53;;;17.70;61.20;;;;;;10496452;28;20178;-60
2021/03/25 07:09:31;;;;;;;23.20;8.35;;;17.60;60.70;;;;;;10453108;28;20281;-61
2021/03/25 07:14:43;;;;;;;13.48;8.07;;;17.60;60.70;;;;;;10465807;28;20037;-61
2021/03/25 07:19:50;;;;;;;14.70;8.60;;;17.60;60.70;;;;;;10472938;28;20229;-60
2021/03/25 07:25:13;;;;;;;19.92;8.23;;;17.60;60.60;;;;;;10457306;28;20033;-61
2021/03/25 07:30:19;;;;;;;19.42;9.93;;;17.60;60.50;;;;;;10459400;28;20415;-62
2021/03/25 07:35:40;;;;;;;19.25;11.32;;;17.50;60.40;;;;;;10458403;28;20436;-62
2021/03/25 07:40:43;;;;;;;18.25;11.18;;;17.50;60.40;;;;;;10448562;28;20027;-62
2021/03/25 07:45:44;;;;;;;15.68;10.27;;;17.50;60.30;;;;;;10449708;28;20032;-59
2021/03/25 07:50:48;;;;;;;16.30;9.43;;;17.50;60.30;;;;;;10457625;28;20484;-62
2021/03/25 07:55:49;;;;;;;15.85;10.48;;;17.50;60.30;;;;;;10464841;28;20428;-63
2021/03/25 08:01:11;;;;;;;12.35;8.27;;;17.50;60.40;;;;;;10468261;28;20112;-63
2021/03/25 08:06:38;;;;;;;12.73;9.25;;;17.50;60.40;;;;;;10468299;28;20369;-62
2021/03/25 08:12:01;;;;;;;15.73;9.82;;;17.50;60.50;;;;;;10467369;28;20037;-62
2021/03/25 08:17:11;;;;;;;13.38;9.45;;;17.40;60.50;;;;;;10466227;28;20408;-62
2021/03/25 08:22:20;;;;;;;;;;;17.40;60.60;;;;;;10468966;28;20063;-62
2021/03/25 08:27:42;;;;;;;12.52;7.47;;;17.40;60.60;;;;;;10468809;28;19920;-61
2021/03/25 08:32:58;;;;;;;11.02;7.22;;;17.30;60.70;;;;;;10469301;28;20059;-62
2021/03/25 08:38:43;;;;;;;19.45;7.93;;;17.30;60.50;;;;;;10467567;28;20379;-62
2021/03/25 08:43:56;;;;;;;11.25;7.75;;;17.30;60.50;;;;;;10464849;28;20108;-62
2021/03/25 08:49:15;;;;;;;10.15;6.97;;;17.30;60.60;;;;;;10460438;28;20029;-63
2021/03/25 08:54:43;;;;;;;11.80;8.23;;;17.30;60.60;;;;;;10459612;28;20056;-63
2021/03/25 09:00:33;;;;;;;13.68;8.45;;;17.40;60.60;;;;;;10471404;28;20084;-61
2021/03/25 09:05:40;;;;;;;9.57;7.70;;;17.30;60.60;;;;;;10414623;28;20025;-62
2021/03/25 09:10:52;;;;;;;11.70;7.68;;;17.30;60.50;;;;;;10450537;28;20122;-63
2021/03/25 09:15:56;;;;;;;16.02;8.35;;;17.30;60.60;;;;;;10458887;28;20044;-63
2021/03/25 09:21:10;;;;;;;9.52;7.00;;;17.30;60.50;;;;;;10458233;28;20103;-62
2021/03/25 09:26:11;;;;;;;12.52;6.85;;;17.30;60.60;;;;;;10472042;28;20045;-62
2021/03/25 09:31:15;;;;;;;12.88;7.80;;;17.30;60.60;;;;;;10464740;28;20028;-61
2021/03/25 09:36:19;;;;;;;10.35;7.43;;;17.40;60.60;;;;;;10459628;28;20392;-62
2021/03/25 09:41:38;;;;;;;9.20;7.07;;;17.30;60.50;;;;;;10459132;28;20454;-61
2021/03/25 09:46:46;;;;;;;10.10;7.45;;;17.30;60.60;;;;;;10458914;28;20033;-61
2021/03/25 09:52:09;;;;;;;10.32;7.05;;;17.30;60.60;;;;;;10458715;28;20033;-62
2021/03/25 09:57:36;;;;;;;11.95;7.70;;;17.30;60.70;;;;;;10457154;28;20472;-63
2021/03/25 10:02:40;;;;;;;7.97;7.18;;;17.20;60.70;;;;;;10458471;28;20050;-62
2021/03/25 10:07:41;;;;;;;9.68;7.05;;;17.20;60.60;;;;;;10457694;28;20060;-62
2021/03/25 10:13:01;;;;;;;7.57;6.15;;;17.20;60.70;;;;;;10456643;28;20457;-62
2021/03/25 10:18:15;;;;;;;11.15;7.40;;;17.20;60.70;;;;;;10457421;28;20111;-62
2021/03/25 10:23:26;;;;;;;10.27;6.97;;;17.20;60.70;;;;;;10456722;28;20052;-62
2021/03/25 10:28:30;;;;;;;8.80;6.63;;;17.20;60.70;;;;;;10461592;28;20115;-62
2021/03/25 10:33:31;;;;;;;6.78;5.75;;;17.20;60.70;;;;;;10455715;28;20033;-62
2021/03/25 10:38:43;;;;;;;11.48;7.10;;;17.20;60.70;;;;;;10455631;28;20064;-61
2021/03/25 10:43:49;;;;;;;8.70;5.60;;;17.20;61.30;;;;;;10456729;28;20033;-62
2021/03/25 10:48:52;;;;;;;9.75;6.60;;;17.20;60.70;;;;;;10456454;28;20045;-62
2021/03/25 10:53:57;;;;;;;9.88;6.43;;;17.20;60.60;;;;;;10455044;28;20036;-62
2021/03/25 10:59:02;;;;;;;10.05;6.30;;;17.20;60.70;;;;;;10454885;28;20108;-62
2021/03/25 11:04:20;;;;;;;8.55;6.63;;;17.20;60.70;;;;;;10455804;28;20086;-62
2021/03/25 11:09:30;;;;;;;8.73;5.82;;;17.10;60.60;;;;;;10454991;28;20105;-62
2021/03/25 11:14:43;;;;;;;7.25;5.65;;;17.20;60.60;;;;;;10455660;28;20064;-61
2021/03/25 11:19:59;;;;;;;8.23;6.05;;;17.20;60.60;;;;;;10454498;28;20086;-61
2021/03/25 11:25:04;;;;;;;8.05;6.25;;;17.20;60.60;;;;;;10455272;28;20036;-62
2021/03/25 11:30:37;;;;;;;6.53;5.32;;;17.20;60.70;;;;;;10459557;28;20064;-62
2021/03/25 11:35:42;;;;;;;15.73;5.82;;;17.20;60.70;;;;;;10455083;28;20089;-62
2021/03/25 11:40:45;;;;;;;9.27;5.28;;;17.20;60.50;;;;;;10454974;28;20031;-62
2021/03/25 11:45:52;;;;;;;7.85;5.18;;;17.20;60.50;;;;;;10454579;28;20029;-62
2021/03/25 11:51:16;;;;;;;7.95;5.63;;;17.20;60.40;;;;;;10451687;28;20029;-61
2021/03/25 11:56:30;;;;;;;7.50;5.60;;;17.30;60.40;;;;;;10449705;28;20094;-62
2021/03/25 12:01:33;;;;;;;8.95;5.65;;;17.30;60.40;;;;;;10450259;28;20550;-61
2021/03/25 12:06:37;;;;;;;6.45;5.60;;;17.30;60.30;;;;;;10454189;28;20036;-61
2021/03/25 12:11:40;;;;;;;7.07;4.93;;;17.30;60.30;;;;;;10454245;28;20090;-62
2021/03/25 12:16:42;;;;;;;7.57;5.05;;;17.40;60.30;;;;;;10454241;28;20057;-62
2021/03/25 12:21:43;;;;;;;7.75;5.68;;;17.40;60.40;;;;;;10483701;28;20059;-61
2021/03/25 12:26:44;;;;;;;5.47;4.40;;;17.30;60.30;;;;;;10461820;28;20039;-62
2021/03/25 12:31:45;;;;;;;6.15;4.97;;;17.30;60.30;;;;;;10466623;28;20032;-61
2021/03/25 12:36:45;;;;;;;5.75;4.55;;;17.30;60.30;;;;;;10461594;28;20373;-62
2021/03/25 12:41:46;;;;;;;6.10;4.78;;;17.40;60.20;;;;;;10461114;28;20044;-61
2021/03/25 12:46:47;;;;;;;6.82;4.68;;;17.40;60.20;;;;;;10461145;28;20029;-62
2021/03/25 12:51:47;;;;;;;6.45;4.85;;;17.40;60.10;;;;;;10461122;28;20426;-61
2021/03/25 12:56:56;;;;;;;4.93;4.00;;;17.40;60.00;;;;;;10459429;28;20059;-61
2021/03/25 13:01:57;;;;;;;5.50;3.97;;;17.40;60.00;;;;;;10459254;28;20037;-61
2021/03/25 13:06:58;;;;;;;6.50;5.05;;;17.50;60.00;;;;;;10460194;28;20064;-62
2021/03/25 13:12:11;;;;;;;6.05;4.68;;;17.50;60.00;;;;;;10458938;28;20080;-62
2021/03/25 13:17:12;;;;;;;5.22;4.15;;;17.50;60.60;;;;;;10458845;28;20068;-62
2021/03/25 13:22:13;;;;;;;4.15;3.65;;;17.50;60.00;;;;;;10451529;28;20072;-62
2021/03/25 13:27:14;;;;;;;4.63;3.97;;;17.40;59.80;;;;;;10456913;28;20036;-62
2021/03/25 13:32:15;;;;;;;5.90;4.50;;;17.50;59.90;;;;;;10458084;28;20028;-62
2021/03/25 13:37:16;;;;;;;5.35;4.25;;;17.50;59.90;;;;;;10456064;28;20033;-61
2021/03/25 13:42:18;;;;;;;6.85;4.45;;;17.40;59.90;;;;;;10466464;28;20048;-62
2021/03/25 13:47:18;;;;;;;5.32;3.92;;;17.50;59.90;;;;;;10458298;28;20067;-62
2021/03/25 13:52:19;;;;;;;4.43;3.80;;;17.50;59.80;;;;;;10457122;28;20040;-62
2021/03/25 13:57:21;;;;;;;4.82;4.10;;;17.50;59.80;;;;;;10458820;28;20032;-62
2021/03/25 14:02:22;;;;;;;4.90;4.07;;;17.50;59.80;;;;;;10456745;28;20155;-63
2021/03/25 14:07:23;;;;;;;6.00;4.68;;;17.50;59.80;;;;;;10457625;28;20135;-62
2021/03/25 14:12:24;;;;;;;5.10;4.25;;;17.50;59.80;;;;;;10458202;28;20481;-62
2021/03/25 14:17:25;;;;;;;4.68;3.45;;;17.50;59.80;;;;;;10456854;28;20021;-62
2021/03/25 14:22:26;;;;;;;4.38;3.30;;;17.40;60.20;;;;;;10457079;28;20683;-61
2021/03/25 14:27:26;;;;;;;5.35;3.55;;;17.40;60.40;;;;;;10457854;28;20044;-62
2021/03/25 14:32:27;;;;;;;4.82;3.13;;;17.40;60.40;;;;;;10460900;28;20083;-61
2021/03/25 14:37:28;;;;;;;4.05;3.50;;;17.40;60.40;;;;;;10456708;28;20366;-61
2021/03/25 14:42:29;;;;;;;3.92;3.00;;;17.40;60.40;;;;;;10454994;28;20481;-61
2021/03/25 14:47:29;;;;;;;6.70;3.83;;;17.50;60.50;;;;;;10455916;28;20041;-61
2021/03/25 14:52:30;;;;;;;4.10;3.20;;;17.50;60.50;;;;;;10454444;28;20044;-62
2021/03/25 14:57:31;;;;;;;5.03;4.03;;;17.50;60.50;;;;;;10454829;28;20032;-62
2021/03/25 15:02:32;;;;;;;4.40;3.38;;;17.50;60.50;;;;;;10455590;28;20029;-63
2021/03/25 15:07:32;;;;;;;5.15;3.22;;;17.50;60.40;;;;;;10454728;28;20476;-63
2021/03/25 15:12:33;;;;;;;5.43;3.85;;;17.50;60.40;;;;;;10456548;28;20047;-62
2021/03/25 15:17:34;;;;;;;4.78;3.60;;;17.40;60.40;;;;;;10460442;28;20045;-62
2021/03/25 15:22:35;;;;;;;3.90;3.00;;;17.40;60.50;;;;;;10448355;28;20401;-62
2021/03/25 15:27:36;;;;;;;4.70;3.55;;;17.40;60.50;;;;;;10457714;28;20025;-62
2021/03/25 15:32:36;;;;;;;7.70;4.10;;;17.40;60.50;;;;;;10458166;28;20033;-62
2021/03/25 15:37:37;;;;;;;4.80;3.58;;;17.40;60.50;;;;;;10454792;28;20521;-62
2021/03/25 15:42:38;;;;;;;3.75;2.95;;;17.40;60.50;;;;;;10454689;28;20103;-61
2021/03/25 15:47:38;;;;;;;3.58;3.08;;;17.40;60.50;;;;;;10454352;28;20061;-61
2021/03/25 15:52:39;;;;;;;4.43;3.58;;;17.30;60.40;;;;;;10452723;28;20033;-62
2021/03/25 15:57:40;;;;;;;4.40;3.50;;;17.30;60.40;;;;;;10462064;28;20033;-61
2021/03/25 16:02:41;;;;;;;4.97;3.38;;;17.40;60.50;;;;;;10463093;28;20032;-62
2021/03/25 16:07:42;;;;;;;4.45;3.15;;;17.40;60.40;;;;;;10463501;28;20436;-62
2021/03/25 16:12:42;;;;;;;4.43;3.67;;;17.40;60.40;;;;;;10462615;28;20032;-61
2021/03/25 16:17:43;;;;;;;4.55;3.20;;;17.40;60.40;;;;;;10462103;28;20109;-62
2021/03/25 16:22:44;;;;;;;4.15;2.80;;;17.40;60.30;;;;;;10461826;28;20061;-62
2021/03/25 16:27:45;;;;;;;5.50;2.95;;;17.30;60.20;;;;;;10465074;28;20021;-62
2021/03/25 16:32:45;;;;;;;5.07;3.25;;;17.40;60.30;;;;;;10462131;28;20082;-62
2021/03/25 16:37:46;;;;;;;3.63;2.60;;;17.30;60.20;;;;;;10460589;28;20035;-62
2021/03/25 16:42:48;;;;;;;4.40;3.40;;;17.30;60.20;;;;;;10476398;28;20024;-61
2021/03/25 16:47:51;;;;;;;3.20;2.72;;;17.30;60.10;;;;;;10472068;28;20033;-61
2021/03/25 16:52:52;;;;;;;3.55;2.70;;;17.30;60.20;;;;;;10460782;28;20031;-62
2021/03/25 16:57:52;;;;;;;3.83;2.70;;;17.30;60.10;;;;;;10480588;28;20036;-61
2021/03/25 17:03:00;;;;;;;4.20;2.72;;;17.30;60.10;;;;;;10500503;28;20532;-62
2021/03/25 17:08:01;;;;;;;4.55;3.63;;;17.30;60.00;;;;;;10470896;28;20037;-62
2021/03/25 17:13:04;;;;;;;10.48;5.30;;;17.30;59.00;;;;;;10484616;28;20036;-62
2021/03/25 17:18:05;;;;;;;13.65;6.60;;;17.30;59.60;;;;;;10483246;28;20036;-62
2021/03/25 17:23:13;;;;;;;9.20;4.25;;;17.40;60.00;;;;;;10459643;28;20103;-65
2021/03/25 17:28:23;;;;;;;11.18;3.88;;;17.50;60.20;;;;;;10462843;28;20139;-66
2021/03/25 17:33:27;;;;;;;7.47;3.30;;;17.60;62.40;;;;;;10459182;28;20504;-67
2021/03/25 17:38:29;;;;;;;10.18;3.47;;;17.60;62.10;;;;;;10477242;28;20036;-67
2021/03/25 17:43:29;;;;;;;8.68;3.83;;;17.70;61.90;;;;;;10458754;28;20040;-63
2021/03/25 17:48:33;;;;;;;16.25;3.40;;;17.60;61.70;;;;;;10468589;28;20095;-66
2021/03/25 17:53:34;;;;;;;8.05;3.17;;;17.70;61.80;;;;;;10476744;28;20462;-67
2021/03/25 17:58:35;;;;;;;13.13;3.63;;;17.70;62.00;;;;;;10458557;28;20036;-65
2021/03/25 18:03:36;;;;;;;9.75;2.70;;;17.70;61.10;;;;;;10497829;28;20059;-63
2021/03/25 18:08:38;;;;;;;15.50;4.07;;;17.70;60.80;;;;;;10463337;28;20060;-65
2021/03/25 18:13:42;;;;;;;6.30;3.08;;;17.70;60.60;;;;;;10471905;28;20845;-62
2021/03/25 18:18:42;;;;;;;8.68;3.58;;;17.60;60.80;;;;;;10471272;28;20024;-63
2021/03/25 18:23:44;;;;;;;8.13;2.63;;;17.60;60.80;;;;;;10468986;28;20053;-62
2021/03/25 18:28:45;;;;;;;8.23;3.45;;;17.60;61.20;;;;;;10466797;28;20029;-62
2021/03/25 18:33:47;;;;;;;5.78;2.58;;;17.60;61.80;;;;;;10490541;28;20025;-63
2021/03/25 18:38:49;;;;;;;7.50;2.70;;;17.60;61.90;;;;;;10490353;28;20021;-62
2021/03/25 18:43:51;;;;;;;4.82;2.58;;;17.60;62.40;;;;;;10494417;28;20056;-61
2021/03/25 18:48:53;;;;;;;10.10;3.63;;;17.60;61.90;;;;;;10489574;28;20033;-62
2021/03/25 18:53:56;;;;;;;6.10;2.63;;;17.60;62.10;;;;;;10477314;28;20481;-61
2021/03/25 18:58:57;;;;;;;11.85;3.28;;;17.60;62.60;;;;;;10471769;28;20060;-61
2021/03/25 19:03:58;;;;;;;6.45;2.50;;;17.60;62.00;;;;;;10476838;28;20036;-64
2021/03/25 19:08:59;;;;;;;5.95;2.30;;;17.60;62.20;;;;;;10474585;28;20505;-62
2021/03/25 19:14:00;;;;;;;5.90;2.70;;;17.60;62.00;;;;;;10477514;28;20154;-62
2021/03/25 19:19:02;;;;;;;6.63;2.50;;;17.60;61.80;;;;;;10461815;28;20113;-62
2021/03/25 19:24:04;;;;;;;14.35;2.90;;;17.60;61.90;;;;;;10476424;28;20036;-62
2021/03/25 19:29:05;;;;;;;9.48;2.88;;;17.50;61.90;;;;;;10463968;28;20035;-62
2021/03/25 19:34:05;;;;;;;9.88;3.28;;;17.50;61.60;;;;;;10460411;28;20029;-65
2021/03/25 19:39:06;;;;;;;7.82;2.88;;;17.50;61.50;;;;;;10457179;28;20087;-62
2021/03/25 19:44:07;;;;;;;8.95;2.75;;;17.50;62.20;;;;;;10464752;28;20021;-63
2021/03/25 19:49:08;;;;;;;4.90;2.40;;;17.50;62.00;;;;;;10436132;28;20033;-62
2021/03/25 19:54:09;;;;;;;6.80;3.08;;;17.50;61.90;;;;;;10462155;28;20115;-63
2021/03/25 19:59:10;;;;;;;11.18;2.58;;;17.50;62.00;;;;;;10474065;28;20390;-61
2021/03/25 20:04:11;;;;;;;10.13;3.00;;;17.50;61.60;;;;;;10478850;28;20067;-62
2021/03/25 20:09:13;;;;;;;5.57;2.10;;;17.50;61.50;;;;;;10476516;28;20120;-62
2021/03/25 20:14:14;;;;;;;5.10;2.90;;;17.50;61.40;;;;;;10469791;28;20461;-61
2021/03/25 20:19:15;;;;;;;11.70;2.80;;;17.50;61.50;;;;;;10460799;28;20033;-63
2021/03/25 20:24:17;;;;;;;12.15;3.25;;;17.50;61.60;;;;;;10452523;28;20128;-64
2021/03/25 20:29:18;;;;;;;4.60;2.58;;;17.50;61.50;;;;;;10460086;28;20417;-64
2021/03/25 20:34:19;;;;;;;8.43;2.03;;;17.50;61.40;;;;;;10478266;28;20133;-63
2021/03/25 20:39:19;;;;;;;7.53;2.90;;;17.50;61.30;;;;;;10480599;28;20495;-65
2021/03/25 20:44:20;;;;;;;6.57;2.08;;;17.50;61.10;;;;;;10461422;28;20175;-62
2021/03/25 20:49:21;;;;;;;6.32;2.20;;;17.50;61.00;;;;;;10462461;28;20086;-64
2021/03/25 20:54:22;;;;;;;12.60;2.42;;;17.50;60.80;;;;;;10502837;28;20024;-65
2021/03/25 20:59:22;;;;;;;5.97;2.35;;;17.50;60.80;;;;;;10491997;28;20071;-64
2021/03/25 21:04:23;;;;;;;6.05;2.35;;;17.40;60.60;;;;;;10478279;28;20066;-65
2021/03/25 21:09:25;;;;;;;4.15;2.63;;;17.50;60.50;;;;;;10460597;28;20041;-64
2021/03/25 21:14:25;;;;;;;5.90;2.17;;;17.50;60.30;;;;;;10460354;28;20029;-64
2021/03/25 21:19:26;;;;;;;5.35;2.42;;;17.60;60.20;;;;;;10481387;28;20036;-64
2021/03/25 21:24:27;;;;;;;4.72;1.77;;;17.60;60.00;;;;;;10460132;28;20048;-65
2021/03/25 21:29:27;;;;;;;5.90;1.80;;;17.60;59.80;;;;;;10462561;28;20389;-64
2021/03/25 21:34:28;;;;;;;4.80;1.98;;;17.60;59.60;;;;;;10459694;28;20033;-64
2021/03/25 21:39:29;;;;;;;4.82;1.95;;;17.70;59.50;;;;;;10462019;28;20172;-64
2021/03/25 21:44:30;;;;;;;6.60;2.10;;;17.70;59.40;;;;;;10459351;28;20457;-64
2021/03/25 21:49:31;;;;;;;3.08;1.52;;;17.70;59.30;;;;;;10486081;28;20040;-64
2021/03/25 21:54:32;;;;;;;3.20;1.60;;;17.70;59.20;;;;;;10489624;28;20107;-64
2021/03/25 21:59:33;;;;;;;3.33;1.95;;;17.70;59.10;;;;;;10478999;28;20041;-64
2021/03/25 22:04:34;;;;;;;4.30;2.10;;;17.70;59.00;;;;;;10458153;28;20029;-63
2021/03/25 22:09:34;;;;;;;4.20;1.52;;;17.70;58.90;;;;;;10468663;28;20033;-64
2021/03/25 22:14:35;;;;;;;2.15;1.38;;;17.70;58.70;;;;;;10469112;28;20067;-64
2021/03/25 22:19:36;;;;;;;3.92;1.98;;;17.70;58.70;;;;;;10470941;28;20103;-64
2021/03/25 22:24:36;;;;;;;4.30;2.00;;;17.70;59.20;;;;;;10497765;28;20450;-63
2021/03/25 22:29:37;;;;;;;9.30;2.45;;;17.70;58.50;;;;;;10495498;28;20024;-64
2021/03/25 22:34:38;;;;;;;3.33;1.70;;;17.70;58.40;;;;;;10498562;28;20066;-64
2021/03/25 22:39:38;;;;;;;3.28;1.80;;;17.80;58.30;;;;;;10480791;28;20116;-64
2021/03/25 22:44:39;;;;;;;2.53;1.65;;;17.80;58.30;;;;;;10455821;28;20033;-64
2021/03/25 22:49:40;;;;;;;2.55;1.77;;;17.80;58.20;;;;;;10462888;28;20028;-64
2021/03/25 22:54:41;;;;;;;3.30;1.85;;;17.70;58.10;;;;;;10488576;28;20534;-62
2021/03/25 22:59:43;;;;;;;3.95;2.17;;;17.70;58.00;;;;;;10480165;28;20052;-62
2021/03/25 23:04:44;;;;;;;4.15;1.80;;;17.80;58.00;;;;;;10455377;28;20028;-62
2021/03/25 23:09:46;;;;;;;2.88;1.75;;;17.70;57.90;;;;;;10456206;28;20389;-62
2021/03/25 23:14:48;;;;;;;3.65;1.90;;;17.80;57.90;;;;;;10469472;28;20467;-61
2021/03/25 23:19:50;;;;;;;2.90;2.13;;;17.80;57.80;;;;;;10455761;28;20053;-61
2021/03/25 23:24:54;;;;;;;3.92;1.90;;;17.80;57.70;;;;;;10454638;28;20045;-61
2021/03/25 23:29:55;;;;;;;3.13;1.60;;;17.80;57.70;;;;;;10468322;28;20367;-61
2021/03/25 23:34:57;;;;;;;3.85;1.50;;;17.70;57.60;;;;;;10453708;28;20060;-60
2021/03/25 23:39:57;;;;;;;2.42;1.77;;;17.80;57.60;;;;;;10454018;28;20116;-62
2021/03/25 23:44:58;;;;;;;4.38;2.25;;;17.80;57.60;;;;;;10476265;28;20536;-61
2021/03/25 23:49:59;;;;;;;2.80;1.65;;;17.80;57.50;;;;;;10492245;28;20036;-61
2021/03/25 23:54:59;;;;;;;5.00;2.13;;;17.80;57.50;;;;;;10470352;28;20039;-62
